createdAt,value
2022-12-14T00:01:49.110Z,27.27
2022-12-14T00:04:17.497Z,28.30
2022-12-14T00:06:45.187Z,25.53
2022-12-14T00:09:12.561Z,23.27
2022-12-14T00:11:40.420Z,24.60
2022-12-14T00:14:07.970Z,19.87
2022-12-14T00:16:36.542Z,20.60
2022-12-14T00:19:08.242Z,22.15
2022-12-14T00:21:35.637Z,21.43
2022-12-14T00:24:03.253Z,22.57
2022-12-14T00:26:32.948Z,20.73
2022-12-14T00:29:01.989Z,21.47
2022-12-14T00:31:30.176Z,22.50
2022-12-14T00:33:58.422Z,21.65
2022-12-14T00:36:25.739Z,22.07
2022-12-14T00:38:53.101Z,21.63
2022-12-14T00:41:20.821Z,19.60
2022-12-14T00:43:49.150Z,20.53
2022-12-14T00:46:17.458Z,19.40
2022-12-14T00:48:45.409Z,20.63
2022-12-14T00:51:15.129Z,23.13
2022-12-14T00:53:45.112Z,24.73
2022-12-14T00:56:12.966Z,21.40
2022-12-14T00:58:40.756Z,21.03
2022-12-14T01:01:15.105Z,14.13
2022-12-14T01:03:43.128Z,16.33
2022-12-14T01:06:19.235Z,16.93
2022-12-14T01:08:48.219Z,15.60
2022-12-14T01:11:20.555Z,14.10
2022-12-14T01:13:50.348Z,19.70
2022-12-14T01:16:18.080Z,44.70
2022-12-14T01:18:45.452Z,17.77
2022-12-14T01:21:16.709Z,20.70
2022-12-14T01:23:45.231Z,16.33
2022-12-14T01:26:15.082Z,19.20
2022-12-14T01:28:43.580Z,20.70
2022-12-14T01:31:15.176Z,15.60
2022-12-14T01:33:43.858Z,16.40
2022-12-14T01:36:14.254Z,18.20
2022-12-14T01:38:41.695Z,18.90
2022-12-14T01:41:33.587Z,18.43
2022-12-14T01:44:03.395Z,19.90
2022-12-14T01:46:34.220Z,17.40
2022-12-14T01:49:38.668Z,16.17
2022-12-14T01:52:28.185Z,15.90
2022-12-14T01:55:05.291Z,17.00
2022-12-14T01:57:42.623Z,16.80
2022-12-14T02:00:13.489Z,15.43
2022-12-14T02:02:53.812Z,16.47
2022-12-14T02:05:23.670Z,15.00
2022-12-14T02:07:53.553Z,15.47
2022-12-14T02:10:24.086Z,17.03
2022-12-14T02:12:59.581Z,15.67
2022-12-14T02:15:26.906Z,14.83
2022-12-14T02:17:54.732Z,17.43
2022-12-14T02:20:25.504Z,12.03
2022-12-14T02:23:18.556Z,14.33
2022-12-14T02:26:33.888Z,16.83
2022-12-14T02:29:26.767Z,12.77
2022-12-14T02:32:32.509Z,15.70
2022-12-14T02:35:09.307Z,15.87
2022-12-14T02:37:39.900Z,14.30
2022-12-14T02:40:30.152Z,11.57
2022-12-14T02:43:22.665Z,14.40
2022-12-14T02:46:09.879Z,14.97
2022-12-14T02:48:42.153Z,13.03
2022-12-14T02:51:32.812Z,15.27
2022-12-14T02:54:14.493Z,14.10
2022-12-14T02:56:49.505Z,14.13
2022-12-14T02:59:18.713Z,13.40
2022-12-14T03:01:48.173Z,11.35
2022-12-14T03:04:16.772Z,17.73
2022-12-14T03:06:59.724Z,15.45
2022-12-14T03:09:30.445Z,13.80
2022-12-14T03:12:05.428Z,13.77
2022-12-14T03:14:40.160Z,15.70
2022-12-14T03:17:19.693Z,12.33
2022-12-14T03:19:54.238Z,10.00
2022-12-14T03:22:31.165Z,15.13
2022-12-14T03:25:09.251Z,12.30
2022-12-14T03:27:40.986Z,13.20
2022-12-14T03:30:23.778Z,12.33
2022-12-14T03:33:10.057Z,16.73
2022-12-14T03:35:50.017Z,11.23
2022-12-14T03:38:27.503Z,13.33
2022-12-14T03:41:22.278Z,12.90
2022-12-14T03:44:06.291Z,13.10
2022-12-14T03:46:44.348Z,11.77
2022-12-14T03:49:52.365Z,13.38
2022-12-14T03:52:55.246Z,10.63
2022-12-14T03:55:34.195Z,12.98
2022-12-14T03:58:10.683Z,13.93
2022-12-14T04:00:57.663Z,9.33
2022-12-14T04:03:37.536Z,11.37
2022-12-14T04:06:34.079Z,10.20
2022-12-14T04:09:26.139Z,9.10
2022-12-14T04:12:30.519Z,7.83
2022-12-14T04:15:41.825Z,10.97
2022-12-14T04:18:33.460Z,10.00
2022-12-14T04:21:13.749Z,8.37
2022-12-14T04:24:08.623Z,10.13
2022-12-14T04:26:42.910Z,10.77
2022-12-14T04:29:33.776Z,13.75
2022-12-14T04:32:19.562Z,9.17
2022-12-14T04:34:51.597Z,9.53
2022-12-14T04:37:23.158Z,10.80
2022-12-14T04:39:56.319Z,9.65
2022-12-14T04:42:31.479Z,10.60
2022-12-14T04:45:14.786Z,8.60
2022-12-14T04:47:51.646Z,9.83
2022-12-14T04:50:27.275Z,8.87
2022-12-14T04:53:05.864Z,10.17
2022-12-14T04:55:49.217Z,11.87
2022-12-14T04:58:23.862Z,11.10
2022-12-14T05:01:16.063Z,10.07
2022-12-14T05:04:12.690Z,13.30
2022-12-14T05:07:06.506Z,9.43
2022-12-14T05:09:46.636Z,11.20
2022-12-14T05:12:21.979Z,10.53
2022-12-14T05:14:59.482Z,8.53
2022-12-14T05:17:27.909Z,10.77
2022-12-14T05:19:55.511Z,8.93
2022-12-14T05:22:22.853Z,9.50
2022-12-14T05:24:50.162Z,10.30
2022-12-14T05:27:17.742Z,10.30
2022-12-14T05:29:45.217Z,10.17
2022-12-14T05:32:13.891Z,11.17
2022-12-14T05:34:41.610Z,10.38
2022-12-14T05:37:13.097Z,8.77
2022-12-14T05:39:45.529Z,10.80
2022-12-14T05:42:12.825Z,10.20
2022-12-14T05:44:40.184Z,12.45
2022-12-14T05:47:08.016Z,9.88
2022-12-14T05:49:36.524Z,10.88
2022-12-14T05:52:04.032Z,11.33
2022-12-14T05:54:31.766Z,13.75
2022-12-14T05:56:59.059Z,14.70
2022-12-14T05:59:26.417Z,13.00
2022-12-14T06:01:54.184Z,13.32
2022-12-14T06:04:21.961Z,13.27
2022-12-14T06:06:50.324Z,12.48
2022-12-14T06:09:18.494Z,11.95
2022-12-14T06:11:47.983Z,14.13
2022-12-14T06:14:15.888Z,15.75
2022-12-14T06:16:45.773Z,17.10
2022-12-14T06:19:14.918Z,15.20
2022-12-14T06:21:43.866Z,19.00
2022-12-14T06:24:13.163Z,18.98
2022-12-14T06:26:41.377Z,17.70
2022-12-14T06:29:14.222Z,21.50
2022-12-14T06:31:42.061Z,16.23
2022-12-14T06:34:10.175Z,18.90
2022-12-14T06:36:39.889Z,15.43
2022-12-14T06:39:17.296Z,15.65
2022-12-14T06:41:44.813Z,17.37
2022-12-14T06:44:14.391Z,16.58
2022-12-14T06:46:42.621Z,14.75
2022-12-14T06:49:19.063Z,18.07
2022-12-14T06:51:46.724Z,14.20
2022-12-14T06:54:15.582Z,17.03
2022-12-14T06:56:45.023Z,15.48
2022-12-14T06:59:13.463Z,17.93
2022-12-14T07:01:41.665Z,16.50
2022-12-14T07:04:09.877Z,15.47
2022-12-14T07:06:39.759Z,13.27
2022-12-14T07:09:12.176Z,16.97
2022-12-14T07:11:40.392Z,15.90
2022-12-14T07:14:07.774Z,19.97
2022-12-14T07:16:37.206Z,15.98
2022-12-14T07:19:05.309Z,18.08
2022-12-14T07:21:33.455Z,15.57
2022-12-14T07:26:30.230Z,13.27
2022-12-14T07:29:00.819Z,19.83
2022-12-14T07:31:29.895Z,21.03
2022-12-14T07:36:28.579Z,17.53
2022-12-14T07:38:56.706Z,18.17
2022-12-14T07:41:31.906Z,18.40
2022-12-14T07:44:01.239Z,18.03
2022-12-14T07:46:32.457Z,20.17
2022-12-14T07:49:01.340Z,30.07
2022-12-14T07:51:36.048Z,21.25
2022-12-14T07:54:06.064Z,23.93
2022-12-14T07:56:36.931Z,21.83
2022-12-14T07:59:05.833Z,24.30
2022-12-14T08:01:35.402Z,21.35
2022-12-14T08:04:29.634Z,21.03
2022-12-14T08:06:59.681Z,21.37
2022-12-14T08:09:27.391Z,21.67
2022-12-14T08:11:54.972Z,23.60
2022-12-14T08:14:22.760Z,22.43
2022-12-14T08:16:51.474Z,24.37
2022-12-14T08:19:19.414Z,20.23
2022-12-14T08:30:02.361Z,20.00
2022-12-14T08:32:34.234Z,25.12
2022-12-14T08:35:01.999Z,26.97
2022-12-14T08:37:29.620Z,22.27
2022-12-14T08:39:56.879Z,21.63
2022-12-14T08:42:24.156Z,19.40
2022-12-14T08:44:51.793Z,21.90
2022-12-14T08:47:20.615Z,20.65
2022-12-14T08:49:47.838Z,18.43
2022-12-14T08:52:16.559Z,20.90
2022-12-14T08:54:43.858Z,16.23
2022-12-14T08:57:11.119Z,16.03
2022-12-14T09:01:56.546Z,17.80
2022-12-14T09:04:24.677Z,21.93
2022-12-14T09:06:51.938Z,15.50
2022-12-14T09:09:19.194Z,17.17
2022-12-14T09:11:47.019Z,14.03
2022-12-14T09:14:14.338Z,16.83
2022-12-14T09:16:42.011Z,14.57
2022-12-14T09:19:09.946Z,14.33
2022-12-14T09:21:37.316Z,16.70
2022-12-14T09:24:06.651Z,12.50
2022-12-14T09:26:34.336Z,14.07
2022-12-14T09:29:01.704Z,13.30
2022-12-14T09:31:29.465Z,12.03
2022-12-14T09:33:57.241Z,11.27
2022-12-14T09:36:28.608Z,11.50
2022-12-14T09:38:57.884Z,13.73
2022-12-14T09:41:34.487Z,8.73
2022-12-14T09:44:47.035Z,9.97
2022-12-14T09:47:26.696Z,11.33
2022-12-14T09:55:26.472Z,9.53
2022-12-14T09:58:05.879Z,11.03
2022-12-14T10:00:48.185Z,24.98
2022-12-14T10:03:34.129Z,88.93
2022-12-14T10:06:21.485Z,33.00
2022-12-14T10:09:03.782Z,19.73
2022-12-14T10:11:40.055Z,45.37
2022-12-14T10:14:19.910Z,39.43
2022-12-14T10:19:55.316Z,18.00
2022-12-14T10:22:46.724Z,13.03
2022-12-14T10:25:19.292Z,13.87
2022-12-14T10:28:10.301Z,14.80
2022-12-14T10:30:42.288Z,12.13
2022-12-14T10:33:26.781Z,11.40
2022-12-14T10:35:56.618Z,13.37
2022-12-14T10:38:49.293Z,10.93
2022-12-14T10:41:24.594Z,13.00
2022-12-14T10:44:13.545Z,10.33
2022-12-14T10:50:02.596Z,9.20
2022-12-14T10:52:42.215Z,8.13
2022-12-14T10:55:23.635Z,9.03
2022-12-14T10:57:51.310Z,7.23
2022-12-14T11:00:26.114Z,8.27
2022-12-14T11:02:56.069Z,9.57
2022-12-14T11:05:37.708Z,9.90
2022-12-14T11:08:09.562Z,11.00
2022-12-14T11:10:39.728Z,8.37
2022-12-14T11:13:07.558Z,8.10
2022-12-14T11:15:41.526Z,9.00
2022-12-14T11:18:12.240Z,7.23
2022-12-14T11:21:04.667Z,10.40
2022-12-14T11:23:46.272Z,8.80
2022-12-14T11:26:25.747Z,7.13
2022-12-14T11:28:54.870Z,9.70
2022-12-14T11:31:43.922Z,9.30
2022-12-14T11:34:41.619Z,10.57
2022-12-14T11:37:21.088Z,9.70
2022-12-14T11:39:55.491Z,7.97
2022-12-14T11:42:24.036Z,8.00
2022-12-14T11:44:52.449Z,13.80
2022-12-14T11:47:26.492Z,8.57
2022-12-14T11:49:56.855Z,16.67
2022-12-14T11:52:44.350Z,11.50
2022-12-14T11:55:27.116Z,13.47
2022-12-14T11:57:59.779Z,8.90
2022-12-14T12:00:59.440Z,10.40
2022-12-14T12:03:35.330Z,7.47
2022-12-14T12:06:12.448Z,13.67
2022-12-14T12:08:44.856Z,10.33
2022-12-14T12:11:19.335Z,8.87
2022-12-14T12:13:51.965Z,8.57
2022-12-14T12:16:22.515Z,12.70
2022-12-14T12:18:59.056Z,9.07
2022-12-14T12:21:36.119Z,12.00
2022-12-14T12:24:21.054Z,10.83
2022-12-14T12:26:53.756Z,7.97
2022-12-14T12:29:23.993Z,10.40
2022-12-14T12:32:01.439Z,12.63
2022-12-14T12:34:48.064Z,8.03
2022-12-14T12:37:27.713Z,7.73
2022-12-14T12:40:13.121Z,7.53
2022-12-14T12:42:53.932Z,9.47
2022-12-14T12:45:36.252Z,6.13
2022-12-14T12:48:14.590Z,8.10
2022-12-14T12:50:49.596Z,7.93
2022-12-14T12:53:32.184Z,7.00
2022-12-14T12:56:08.694Z,8.63
2022-12-14T12:58:38.332Z,7.53
2022-12-14T13:01:18.234Z,11.50
2022-12-14T13:03:49.057Z,9.33
2022-12-14T13:06:29.347Z,9.77
2022-12-14T13:09:31.088Z,13.63
2022-12-14T13:12:00.224Z,9.67
2022-12-14T13:14:50.073Z,6.72
2022-12-14T13:17:33.323Z,11.63
2022-12-14T13:20:06.264Z,7.33
2022-12-14T13:22:36.021Z,11.17
2022-12-14T13:25:13.904Z,73.30
2022-12-14T13:27:57.509Z,29.83
2022-12-14T13:30:31.974Z,53.80
2022-12-14T13:33:18.411Z,18.20
2022-12-14T13:36:22.265Z,20.27
2022-12-14T13:38:59.247Z,13.57
2022-12-14T13:41:38.399Z,8.17
2022-12-14T13:46:38.683Z,10.90
2022-12-14T13:49:16.742Z,8.40
2022-12-14T13:51:50.420Z,8.97
2022-12-14T13:54:30.418Z,24.40
2022-12-14T13:57:15.625Z,10.60
2022-12-14T13:59:48.696Z,11.00
2022-12-14T14:02:28.365Z,8.10
2022-12-14T14:05:15.157Z,8.63
2022-12-14T14:07:52.013Z,17.47
2022-12-14T14:10:36.563Z,32.73
2022-12-14T14:13:27.610Z,32.00
2022-12-14T14:16:26.709Z,18.17
2022-12-14T14:18:56.319Z,13.00
2022-12-14T14:21:58.782Z,7.00
2022-12-14T14:24:27.740Z,29.63
2022-12-14T14:26:58.529Z,14.70
2022-12-14T14:29:32.909Z,8.13
2022-12-14T14:32:06.032Z,9.00
2022-12-14T14:34:42.696Z,8.73
2022-12-14T14:37:14.701Z,13.73
2022-12-14T14:40:05.924Z,15.23
2022-12-14T14:42:38.506Z,14.05
2022-12-14T14:45:08.897Z,11.90
2022-12-14T14:47:40.993Z,22.30
2022-12-14T14:50:21.993Z,21.33
2022-12-14T14:53:10.187Z,10.63
2022-12-14T14:55:53.071Z,9.87
2022-12-14T14:58:34.168Z,13.00
2022-12-14T15:01:20.092Z,14.20
2022-12-14T15:03:47.904Z,12.70
2022-12-14T15:06:18.726Z,28.50
2022-12-14T15:08:59.181Z,20.73
2022-12-14T15:11:31.711Z,14.17
2022-12-14T15:14:03.144Z,11.00
2022-12-14T15:16:43.114Z,9.30
2022-12-14T15:19:29.532Z,13.17
2022-12-14T15:22:02.483Z,14.57
2022-12-14T15:24:36.263Z,19.97
2022-12-14T15:27:19.015Z,10.73
2022-12-14T15:29:49.422Z,9.97
2022-12-14T15:32:21.625Z,14.57
2022-12-14T15:34:57.013Z,8.87
2022-12-14T15:37:30.513Z,10.03
2022-12-14T15:40:06.096Z,27.77
2022-12-14T15:42:33.760Z,15.77
2022-12-14T15:45:09.569Z,9.73
2022-12-14T15:47:37.288Z,16.17
2022-12-14T15:50:16.735Z,13.83
2022-12-14T15:52:45.761Z,11.50
2022-12-14T15:55:37.042Z,10.95
2022-12-14T15:58:35.427Z,9.50
2022-12-14T16:01:19.167Z,10.70
2022-12-14T16:03:50.693Z,14.17
2022-12-14T16:06:19.088Z,10.70
2022-12-14T16:09:03.150Z,12.15
2022-12-14T16:11:42.149Z,26.63
2022-12-14T16:16:56.060Z,13.40
2022-12-14T16:19:28.827Z,11.87
2022-12-14T16:22:11.766Z,15.87
2022-12-14T16:25:16.927Z,13.30
2022-12-14T16:27:49.733Z,11.83
2022-12-14T16:30:33.120Z,11.07
2022-12-14T16:33:16.834Z,14.70
2022-12-14T16:35:47.444Z,13.37
2022-12-14T16:38:17.779Z,14.07
2022-12-14T16:40:48.642Z,12.63
2022-12-14T16:43:29.077Z,13.83
2022-12-14T16:46:00.256Z,9.57
2022-12-14T16:48:28.983Z,14.67
2022-12-14T16:51:18.768Z,13.00
2022-12-14T16:53:56.484Z,17.93
2022-12-14T16:56:45.583Z,19.43
2022-12-14T16:59:36.236Z,17.55
2022-12-14T17:02:05.035Z,11.63
2022-12-14T17:04:37.735Z,15.35
2022-12-14T17:07:05.627Z,13.33
2022-12-14T17:09:36.786Z,13.93
2022-12-14T17:12:13.205Z,15.40
2022-12-14T17:14:47.508Z,15.97
2022-12-14T17:17:22.596Z,13.87
2022-12-14T17:19:50.385Z,13.57
2022-12-14T17:22:27.693Z,14.47
2022-12-14T17:24:55.823Z,11.43
2022-12-14T17:27:26.727Z,20.63
2022-12-14T17:29:55.330Z,12.80
2022-12-14T17:32:28.825Z,12.43
2022-12-14T17:34:56.908Z,15.93
2022-12-14T17:37:27.688Z,13.00
2022-12-14T17:40:00.053Z,13.97
2022-12-14T17:42:27.423Z,14.75
2022-12-14T17:44:57.212Z,16.33
2022-12-14T17:47:26.433Z,14.23
2022-12-14T17:49:56.800Z,14.37
2022-12-14T17:52:28.781Z,14.23
2022-12-14T17:54:56.725Z,16.10
2022-12-14T17:57:25.621Z,13.10
2022-12-14T18:00:14.282Z,17.45
2022-12-14T18:02:45.987Z,14.57
2022-12-14T18:05:19.392Z,14.40
2022-12-14T18:07:49.765Z,14.90
2022-12-14T18:10:18.694Z,13.17
2022-12-14T18:12:46.293Z,18.45
2022-12-14T18:15:28.374Z,19.37
2022-12-14T18:17:56.183Z,17.73
2022-12-14T18:20:24.475Z,23.90
2022-12-14T18:22:52.471Z,20.00
2022-12-14T18:25:22.690Z,24.63
2022-12-14T18:27:50.380Z,24.67
2022-12-14T18:30:17.823Z,30.87
2022-12-14T18:32:45.481Z,30.93
2022-12-14T18:35:21.961Z,28.37
2022-12-14T18:37:50.876Z,27.67
2022-12-14T18:40:24.602Z,22.58
2022-12-14T18:42:52.154Z,27.90
2022-12-14T18:45:25.834Z,23.63
2022-12-14T18:47:54.384Z,24.13
2022-12-14T18:50:23.143Z,22.92
2022-12-14T18:52:52.012Z,26.03
2022-12-14T18:55:31.334Z,26.73
2022-12-14T18:58:02.124Z,25.10
2022-12-14T19:00:35.628Z,22.43
2022-12-14T19:03:04.963Z,24.87
2022-12-14T19:05:32.661Z,23.25
2022-12-14T19:08:00.555Z,32.87
2022-12-14T19:10:33.004Z,25.97
2022-12-14T19:13:00.912Z,21.23
2022-12-14T19:15:33.839Z,22.77
2022-12-14T19:18:01.700Z,28.77
2022-12-14T19:20:29.514Z,29.83
2022-12-14T19:22:56.941Z,33.97
2022-12-14T19:25:24.699Z,26.93
2022-12-14T19:30:40.683Z,25.57
2022-12-14T19:33:08.176Z,34.47
2022-12-14T19:35:35.535Z,26.97
2022-12-14T19:38:03.350Z,28.50
2022-12-14T19:40:31.083Z,26.17
2022-12-14T19:43:01.512Z,30.20
2022-12-14T19:45:29.188Z,30.47
2022-12-14T19:47:56.570Z,28.87
2022-12-14T19:50:24.085Z,24.77
2022-12-14T19:52:52.674Z,28.37
2022-12-14T19:55:20.029Z,26.43
2022-12-14T19:57:47.318Z,29.90
2022-12-14T20:00:15.190Z,32.70
2022-12-14T20:02:43.142Z,24.27
2022-12-14T20:05:10.677Z,26.07
2022-12-14T20:07:43.760Z,25.77
2022-12-14T20:10:11.864Z,30.10
2022-12-14T20:12:39.429Z,25.90
2022-12-14T20:15:07.111Z,22.40
2022-12-14T20:17:34.982Z,23.97
2022-12-14T20:20:02.432Z,21.63
2022-12-14T20:22:29.874Z,23.90
2022-12-14T20:24:57.729Z,26.83
2022-12-14T20:27:25.127Z,25.03
2022-12-14T20:29:52.538Z,21.30
2022-12-14T20:32:20.155Z,25.07
2022-12-14T20:34:47.549Z,23.27
2022-12-14T20:37:14.933Z,26.07
2022-12-14T20:39:42.631Z,22.07
2022-12-14T20:42:10.023Z,15.03
2022-12-14T20:44:37.408Z,19.77
2022-12-14T20:47:05.237Z,19.13
2022-12-14T20:49:33.226Z,22.53
2022-12-14T20:52:00.668Z,25.33
2022-12-14T20:54:29.504Z,29.63
2022-12-14T20:56:56.962Z,26.73
2022-12-14T20:59:24.317Z,27.40
2022-12-14T21:01:55.730Z,25.10
2022-12-14T21:04:23.873Z,30.57
2022-12-14T21:06:51.903Z,36.00
2022-12-14T21:09:19.507Z,37.97
2022-12-14T21:12:08.259Z,23.07
2022-12-14T21:14:38.559Z,26.67
2022-12-14T21:17:06.523Z,25.83
2022-12-14T21:19:36.167Z,28.33
2022-12-14T21:22:05.302Z,27.10
2022-12-14T21:27:27.209Z,32.92
2022-12-14T21:29:54.630Z,43.23
2022-12-14T21:32:23.251Z,36.47
2022-12-14T21:34:50.778Z,37.37
2022-12-14T21:37:19.074Z,36.87
2022-12-14T21:39:54.330Z,31.73
2022-12-14T21:42:24.931Z,33.53
2022-12-14T21:44:54.022Z,28.10
2022-12-14T21:47:29.880Z,32.97
2022-12-14T21:49:57.977Z,31.27
2022-12-14T21:52:27.497Z,31.10
2022-12-14T21:57:49.813Z,33.27
2022-12-14T22:00:18.680Z,31.23
2022-12-14T22:02:46.521Z,31.80
2022-12-14T22:05:13.991Z,30.10
2022-12-14T22:07:41.477Z,30.47
2022-12-14T22:10:11.064Z,29.97
2022-12-14T22:12:38.333Z,26.62
2022-12-14T22:15:06.094Z,30.70
2022-12-14T22:17:33.951Z,30.83
2022-12-14T22:20:01.352Z,30.37
2022-12-14T22:22:28.707Z,31.93
2022-12-14T22:24:56.432Z,34.13
2022-12-14T22:27:23.873Z,34.13
2022-12-14T22:29:51.250Z,40.07
2022-12-14T22:32:18.968Z,34.70
2022-12-14T22:34:46.653Z,30.93
2022-12-14T22:37:16.882Z,31.43
2022-12-14T22:39:48.087Z,32.33
2022-12-14T22:42:16.562Z,33.40
2022-12-14T22:44:44.172Z,33.53
2022-12-14T22:47:11.937Z,39.93
2022-12-14T22:49:39.246Z,33.23
2022-12-14T22:52:06.724Z,36.13
2022-12-14T22:54:37.343Z,36.93
2022-12-14T22:57:10.028Z,40.97
2022-12-14T22:59:47.162Z,33.77
2022-12-14T23:02:14.737Z,33.97
2022-12-14T23:04:42.818Z,33.73
2022-12-14T23:07:10.262Z,34.43
2022-12-14T23:09:55.990Z,32.77
2022-12-14T23:12:42.183Z,34.77
2022-12-14T23:15:28.279Z,31.70
2022-12-14T23:18:23.911Z,34.93
2022-12-14T23:21:10.144Z,28.87
2022-12-14T23:23:58.343Z,26.47
2022-12-14T23:26:44.872Z,32.50
2022-12-14T23:29:31.033Z,33.37
2022-12-14T23:32:17.581Z,31.50
2022-12-14T23:35:03.795Z,34.93
2022-12-14T23:37:49.478Z,33.07
2022-12-14T23:40:35.745Z,33.00
2022-12-14T23:43:33.610Z,37.00
2022-12-14T23:46:21.287Z,27.48
2022-12-14T23:49:12.055Z,33.53
2022-12-14T23:52:01.907Z,33.53
2022-12-14T23:54:48.205Z,31.50
2022-12-14T23:57:34.906Z,27.77
